Time;durP1;ratioP1;P1;durP2;ratioP2;P2;SDS_P1;SDS_P2;PMS_P1;PMS_P2;Temp;Humidity;BMP_temperature;BMP_pressure;BME280_temperature;BME280_humidity;BME280_pressure;Samples;Min_cycle;Max_cycle;Signal;HPM_P1;HPM_P2
2022/01/23 00:00:35;;;;;;;5.87;1.77;;;20.40;62.50;;;;;;4917944;28;95851;-70
2022/01/23 00:03:11;;;;;;;8.65;2.40;;;20.40;62.30;;;;;;4941286;28;96100;-74
2022/01/23 00:05:45;;;;;;;5.50;2.60;;;20.50;62.00;;;;;;4959129;28;97393;-74
2022/01/23 00:08:23;;;;;;;3.00;1.77;;;20.50;61.80;;;;;;4932630;28;95905;-74
2022/01/23 00:10:55;;;;;;;5.93;2.00;;;20.50;61.60;;;;;;4933744;28;96355;-73
2022/01/23 00:17:17;;;;;;;3.90;2.13;;;20.50;61.10;;;;;;4929842;28;97018;-74
2022/01/23 00:19:16;;;;;;;5.63;2.95;;;20.60;60.80;;;;;;4928670;28;95881;-74
2022/01/23 00:21:51;;;;;;;4.07;2.08;;;20.60;61.00;;;;;;4932975;28;95367;-70
2022/01/23 00:32:52;;;;;;;5.53;2.17;;;20.90;61.40;;;;;;4931910;28;95673;-74
2022/01/23 00:35:24;;;;;;;4.88;1.98;;;21.00;61.40;;;;;;4945685;28;97916;-73
2022/01/23 00:37:55;;;;;;;3.80;1.95;;;21.00;61.40;;;;;;4913971;28;96160;-74
2022/01/23 00:40:29;;;;;;;2.92;1.65;;;21.10;61.50;;;;;;4947483;28;95803;-74
2022/01/23 00:43:01;;;;;;;5.07;1.70;;;21.10;61.50;;;;;;4933904;28;95364;-74
2022/01/23 00:45:35;;;;;;;3.42;1.70;;;21.20;61.50;;;;;;4926598;28;96639;-73
2022/01/23 00:48:08;;;;;;;4.68;2.15;;;21.20;61.50;;;;;;4931884;28;102054;-71
2022/01/23 00:50:45;;;;;;;4.20;1.90;;;21.30;61.60;;;;;;4930329;28;95309;-74
2022/01/23 00:53:17;;;;;;;5.63;1.90;;;21.40;61.70;;;;;;4930160;28;96098;-74
2022/01/23 00:55:48;;;;;;;3.72;1.60;;;21.40;61.70;;;;;;4927602;28;97067;-70
2022/01/23 00:58:20;;;;;;;3.75;2.05;;;21.40;61.60;;;;;;4925777;28;96062;-75
2022/01/23 01:00:52;;;;;;;2.90;1.42;;;21.50;61.60;;;;;;4955202;28;95577;-73
2022/01/23 01:03:23;;;;;;;4.55;1.88;;;21.50;61.60;;;;;;4933156;28;95396;-74
2022/01/23 01:05:54;;;;;;;3.20;1.75;;;21.60;61.70;;;;;;4931306;28;97666;-74
2022/01/23 01:08:25;;;;;;;3.67;1.90;;;21.60;61.60;;;;;;4932004;28;96030;-74
2022/01/23 01:13:30;;;;;;;4.47;1.98;;;21.80;61.70;;;;;;4940146;28;95975;-74
2022/01/23 01:35:48;;;;;;;2.05;1.63;;;22.20;61.60;;;;;;4939013;28;95623;-73
2022/01/23 01:38:18;;;;;;;2.73;1.53;;;22.20;61.60;;;;;;4928592;28;96381;-73
2022/01/23 01:40:49;;;;;;;2.47;1.83;;;22.20;61.50;;;;;;4925737;28;95727;-74
2022/01/23 01:43:21;;;;;;;1.42;1.25;;;22.30;61.50;;;;;;4927542;28;95985;-74
2022/01/23 01:45:54;;;;;;;2.65;1.55;;;22.30;61.50;;;;;;4934390;28;95711;-74
2022/01/23 01:48:39;;;;;;;2.45;1.48;;;22.40;61.50;;;;;;4928357;28;97276;-71
2022/01/23 01:51:16;;;;;;;2.80;1.35;;;22.40;61.40;;;;;;4928538;28;96027;-74
2022/01/23 01:54:06;;;;;;;2.28;1.58;;;22.50;61.30;;;;;;4952111;28;95908;-74
2022/01/23 01:56:49;;;;;;;1.95;1.52;;;22.50;61.30;;;;;;4923287;28;96158;-71
2022/01/23 02:03:08;;;;;;;3.20;1.30;;;22.70;52.10;;;;;;4931161;28;99832;-74
2022/01/23 02:08:42;;;;;;;1.98;1.30;;;22.70;61.10;;;;;;4941132;28;95875;-70
2022/01/23 02:55:41;;;;;;;1.00;1.00;;;23.50;60.40;;;;;;4932618;28;96356;-71
2022/01/23 02:58:16;;;;;;;2.10;0.80;;;23.50;60.40;;;;;;4925830;28;96762;-69
2022/01/23 03:00:50;;;;;;;1.65;1.05;;;23.60;50.10;;;;;;4923643;28;98423;-70
2022/01/23 03:04:00;;;;;;;1.30;1.20;;;23.60;60.20;;;;;;4913883;28;95486;-70
2022/01/23 03:10:12;;;;;;;2.00;1.02;;;23.70;60.10;;;;;;4872639;28;96350;-70
2022/01/23 03:29:20;;;;;;;2.15;1.48;;;24.00;59.90;;;;;;4929635;28;96606;-70
2022/01/23 03:34:26;;;;;;;1.42;0.90;;;24.10;59.80;;;;;;4928581;28;95485;-74
2022/01/23 03:36:58;;;;;;;0.80;0.80;;;24.10;59.60;;;;;;4931095;28;95934;-70
2022/01/23 03:39:29;;;;;;;1.25;1.05;;;24.10;59.50;;;;;;4929162;28;98844;-70
2022/01/23 03:42:00;;;;;;;1.20;0.93;;;24.20;59.40;;;;;;4927946;28;95928;-74
2022/01/23 03:44:34;;;;;;;1.02;0.98;;;24.20;59.40;;;;;;4941414;28;95889;-70
2022/01/23 03:47:20;;;;;;;2.03;1.00;;;24.20;59.30;;;;;;4932000;28;98393;-74
2022/01/23 03:49:51;;;;;;;1.10;1.00;;;24.30;59.40;;;;;;4924751;28;95573;-69
2022/01/23 03:52:42;;;;;;;;;;;24.30;59.20;;;;;;4956099;28;96918;-74
2022/01/23 03:55:16;;;;;;;0.55;0.55;;;24.40;59.30;;;;;;4958827;28;95947;-70
2022/01/23 03:57:48;;;;;;;1.13;1.08;;;24.40;59.20;;;;;;4934916;28;96003;-70
2022/01/23 04:00:19;;;;;;;;;;;24.40;59.20;;;;;;4955422;28;96237;-70
2022/01/23 04:02:51;;;;;;;1.00;0.90;;;24.50;59.10;;;;;;4928871;28;95258;-71
2022/01/23 04:05:29;;;;;;;0.90;0.90;;;24.50;59.00;;;;;;4929647;28;95858;-70
2022/01/23 04:08:00;;;;;;;1.38;0.93;;;24.50;58.90;;;;;;4927000;28;95620;-70
2022/01/23 04:10:34;;;;;;;1.92;0.93;;;24.50;58.90;;;;;;4929098;28;98481;-70
2022/01/23 04:13:20;;;;;;;1.10;1.00;;;24.60;58.80;;;;;;4931163;28;98022;-70
2022/01/23 04:16:11;;;;;;;0.70;0.70;;;24.60;58.80;;;;;;4927544;28;96163;-70
2022/01/23 05:01:05;;;;;;;1.15;0.90;;;25.20;58.00;;;;;;4926379;28;96503;-57
2022/01/23 05:07:17;;;;;;;1.00;0.88;;;25.30;58.90;;;;;;4890180;28;97943;-58
2022/01/23 05:10:05;;;;;;;;;;;25.30;58.20;;;;;;4912965;28;95851;-58
2022/01/23 05:12:40;;;;;;;1.00;1.00;;;25.40;58.30;;;;;;4907648;28;96251;-57
2022/01/23 05:15:12;;;;;;;0.82;0.82;;;25.50;58.40;;;;;;4895343;28;96231;-58
2022/01/23 05:17:44;;;;;;;0.90;0.90;;;25.50;58.40;;;;;;4914338;28;97983;-57
2022/01/23 05:20:18;;;;;;;0.95;0.90;;;25.50;58.40;;;;;;4915786;28;95848;-57
2022/01/23 05:22:52;;;;;;;1.17;0.80;;;25.50;58.30;;;;;;4915193;28;95643;-59
2022/01/23 05:25:26;;;;;;;1.17;0.70;;;25.50;58.30;;;;;;4907818;28;96030;-58
2022/01/23 05:27:58;;;;;;;0.82;0.80;;;25.60;58.20;;;;;;4917322;28;96123;-58
2022/01/23 05:30:28;;;;;;;0.60;0.60;;;25.60;58.10;;;;;;4920148;28;95407;-59
2022/01/23 05:33:00;;;;;;;1.08;0.63;;;25.60;58.10;;;;;;4911676;28;95288;-59
2022/01/23 05:35:31;;;;;;;0.73;0.73;;;25.60;58.00;;;;;;4954347;28;96165;-59
2022/01/23 05:38:01;;;;;;;0.57;0.57;;;25.70;58.10;;;;;;4924730;28;96812;-57
2022/01/23 05:40:33;;;;;;;1.00;0.90;;;25.70;58.00;;;;;;4907419;28;96177;-57
2022/01/23 05:43:05;;;;;;;0.70;0.70;;;25.70;57.90;;;;;;4947144;28;95896;-58
2022/01/23 05:45:41;;;;;;;0.75;0.75;;;25.80;57.90;;;;;;4949785;28;95929;-59
2022/01/23 05:48:31;;;;;;;0.85;0.85;;;25.80;57.80;;;;;;4909062;28;96275;-58
2022/01/23 05:51:20;;;;;;;0.50;0.50;;;25.80;57.80;;;;;;4916378;28;95491;-58
2022/01/23 05:54:17;;;;;;;0.82;0.73;;;25.80;57.70;;;;;;4928685;28;95749;-56
2022/01/23 05:57:20;;;;;;;0.68;0.57;;;25.90;57.70;;;;;;4899079;28;95856;-59
2022/01/23 05:59:58;;;;;;;0.70;0.70;;;25.90;57.60;;;;;;4921593;28;96960;-59
2022/01/23 06:02:30;;;;;;;0.60;0.60;;;25.90;57.60;;;;;;4914969;28;95508;-58
2022/01/23 06:05:03;;;;;;;0.73;0.73;;;25.90;57.50;;;;;;4927363;28;95312;-58
2022/01/23 06:07:42;;;;;;;0.60;0.60;;;25.90;57.40;;;;;;4926708;28;95774;-59
2022/01/23 06:10:26;;;;;;;0.65;0.65;;;26.00;57.40;;;;;;4923774;28;96749;-57
2022/01/23 06:12:56;;;;;;;1.27;0.65;;;26.00;57.30;;;;;;4922079;28;95856;-58
2022/01/23 06:15:26;;;;;;;0.87;0.80;;;26.00;57.30;;;;;;4921316;28;95763;-59
2022/01/23 06:17:59;;;;;;;0.90;0.88;;;26.00;57.30;;;;;;4951639;28;95852;-59
2022/01/23 06:20:51;;;;;;;1.23;0.80;;;26.00;57.20;;;;;;4918211;28;96164;-58
2022/01/23 06:23:42;;;;;;;0.80;0.80;;;26.10;57.10;;;;;;4913825;28;95508;-58
2022/01/23 06:26:50;;;;;;;0.80;0.65;;;26.10;57.00;;;;;;4922852;28;96224;-58
2022/01/23 06:29:22;;;;;;;1.05;0.73;;;26.10;56.90;;;;;;4927886;28;95891;-59
2022/01/23 06:31:55;;;;;;;0.60;0.60;;;26.10;49.20;;;;;;4923905;28;95854;-59
2022/01/23 06:34:29;;;;;;;0.85;0.85;;;26.10;56.90;;;;;;4927432;28;95919;-58
2022/01/23 06:37:00;;;;;;;0.73;0.55;;;26.10;56.80;;;;;;4954047;28;95278;-58
2022/01/23 06:39:32;;;;;;;0.80;0.70;;;26.20;56.90;;;;;;4927693;28;95653;-57
2022/01/23 06:42:05;;;;;;;0.75;0.75;;;26.20;56.70;;;;;;4929937;28;98502;-58
2022/01/23 06:44:37;;;;;;;1.48;0.93;;;26.20;56.70;;;;;;4927851;28;95292;-60
2022/01/23 06:47:15;;;;;;;1.10;0.80;;;26.20;57.30;;;;;;4948360;28;95886;-59
2022/01/23 06:49:47;;;;;;;0.80;0.75;;;26.20;56.50;;;;;;4932654;28;95382;-58
2022/01/23 06:52:19;;;;;;;0.63;0.60;;;26.20;56.50;;;;;;4959448;28;96196;-58
2022/01/23 06:54:55;;;;;;;0.90;0.90;;;26.30;56.50;;;;;;4937360;28;96272;-59
2022/01/23 06:57:28;;;;;;;0.50;0.50;;;26.30;56.50;;;;;;4918837;28;96031;-59
2022/01/23 06:59:59;;;;;;;0.82;0.70;;;26.30;56.40;;;;;;4938894;28;95726;-59
2022/01/23 07:02:59;;;;;;;0.67;0.67;;;26.30;56.40;;;;;;4930365;28;102154;-59
2022/01/23 07:05:49;;;;;;;0.93;0.80;;;26.30;56.30;;;;;;4921226;28;95876;-59
2022/01/23 07:08:29;;;;;;;0.50;0.50;;;26.40;56.30;;;;;;4915329;28;95329;-59
2022/01/23 07:11:18;;;;;;;1.23;0.60;;;26.40;56.20;;;;;;4919986;28;95933;-58
2022/01/23 07:13:59;;;;;;;0.60;0.60;;;26.40;56.20;;;;;;4926535;28;96350;-58
2022/01/23 07:16:47;;;;;;;1.65;0.73;;;26.40;56.10;;;;;;4920532;28;95852;-59
2022/01/23 07:19:26;;;;;;;0.75;0.70;;;26.40;56.00;;;;;;4929716;28;95820;-59
2022/01/23 07:22:01;;;;;;;0.70;0.70;;;26.40;56.00;;;;;;4915914;28;95718;-60
2022/01/23 07:24:32;;;;;;;0.57;0.57;;;26.40;55.90;;;;;;4926829;28;95899;-59
2022/01/23 07:27:13;;;;;;;1.40;0.98;;;26.40;55.80;;;;;;4930479;28;96808;-60
2022/01/23 07:29:44;;;;;;;0.77;0.77;;;26.40;55.80;;;;;;4930502;28;95332;-59
2022/01/23 07:32:16;;;;;;;0.70;0.70;;;26.40;55.70;;;;;;4919885;28;95444;-60
2022/01/23 07:34:47;;;;;;;1.10;1.00;;;26.40;55.70;;;;;;4961380;28;97327;-59
2022/01/23 07:37:20;;;;;;;0.60;0.60;;;26.50;55.70;;;;;;4942735;28;98247;-59
2022/01/23 07:40:05;;;;;;;0.50;0.50;;;26.40;55.60;;;;;;4934332;28;95660;-59
2022/01/23 07:42:42;;;;;;;0.50;0.50;;;26.50;55.60;;;;;;4954902;28;95414;-59
2022/01/23 07:45:48;;;;;;;0.60;0.60;;;26.50;55.50;;;;;;4914640;28;96248;-58
2022/01/23 07:48:45;;;;;;;0.70;0.70;;;26.50;55.50;;;;;;4928624;28;95514;-60
2022/01/23 07:51:45;;;;;;;0.70;0.70;;;26.50;55.40;;;;;;4927974;28;95362;-57
2022/01/23 07:54:38;;;;;;;0.95;0.70;;;26.40;55.40;;;;;;4905691;28;96518;-59
2022/01/23 07:57:23;;;;;;;1.15;0.60;;;26.40;55.30;;;;;;4916846;28;96130;-59
2022/01/23 08:00:15;;;;;;;0.60;0.60;;;26.50;55.40;;;;;;4904288;28;95532;-59
2022/01/23 08:02:47;;;;;;;0.70;0.70;;;26.50;55.30;;;;;;4915736;28;95727;-59
2022/01/23 08:05:25;;;;;;;0.98;0.90;;;26.50;55.40;;;;;;4920004;28;95596;-56
2022/01/23 08:08:29;;;;;;;0.60;0.60;;;26.50;55.30;;;;;;4912068;28;96504;-58
2022/01/23 08:11:31;;;;;;;0.70;0.70;;;26.50;55.20;;;;;;4909177;28;95693;-59
2022/01/23 08:14:02;;;;;;;0.70;0.70;;;26.50;55.20;;;;;;4926022;28;95921;-59
2022/01/23 08:16:32;;;;;;;;;;;26.50;55.30;;;;;;4949850;28;95650;-57
2022/01/23 08:19:04;;;;;;;0.70;0.70;;;26.50;55.20;;;;;;4919571;28;96334;-59
2022/01/23 08:21:34;;;;;;;0.50;0.50;;;26.50;55.20;;;;;;4916739;28;95453;-59
2022/01/23 08:24:07;;;;;;;0.70;0.70;;;26.50;55.10;;;;;;4926934;28;95420;-60
2022/01/23 08:26:38;;;;;;;0.82;0.52;;;26.50;55.10;;;;;;4922329;28;96360;-59
2022/01/23 08:29:10;;;;;;;0.55;0.55;;;26.50;55.10;;;;;;4925124;28;96462;-59
2022/01/23 08:31:40;;;;;;;1.17;0.85;;;26.50;55.10;;;;;;4913898;28;96622;-58
2022/01/23 08:34:11;;;;;;;0.50;0.50;;;26.50;55.10;;;;;;4922180;28;95957;-59
2022/01/23 08:36:43;;;;;;;0.82;0.82;;;26.50;55.00;;;;;;4919361;28;95782;-59
2022/01/23 08:39:17;;;;;;;0.77;0.77;;;26.50;55.00;;;;;;4915430;28;96445;-59
2022/01/23 08:41:51;;;;;;;1.08;0.90;;;26.50;55.00;;;;;;4913567;28;95968;-59
2022/01/23 08:44:27;;;;;;;0.60;0.60;;;26.50;55.00;;;;;;4909755;28;95876;-60
2022/01/23 08:47:01;;;;;;;0.60;0.60;;;26.50;46.60;;;;;;4917377;28;95836;-59
2022/01/23 08:49:36;;;;;;;1.83;0.80;;;26.50;54.90;;;;;;4927099;28;96497;-59
2022/01/23 08:52:07;;;;;;;2.25;0.82;;;26.50;55.00;;;;;;4917540;28;95975;-59
2022/01/23 08:54:39;;;;;;;1.13;0.88;;;26.50;55.00;;;;;;4935977;28;95617;-59
2022/01/23 08:57:14;;;;;;;0.75;0.60;;;26.50;55.00;;;;;;4898520;28;96178;-60
2022/01/23 08:59:44;;;;;;;0.65;0.65;;;26.40;54.90;;;;;;4908128;28;96525;-58
2022/01/23 09:02:18;;;;;;;0.80;0.80;;;26.40;54.90;;;;;;4905979;28;96130;-59
2022/01/23 09:04:49;;;;;;;0.60;0.60;;;26.40;55.50;;;;;;4903404;28;95889;-59
2022/01/23 09:07:20;;;;;;;0.75;0.75;;;26.40;54.90;;;;;;4904177;28;96120;-59
2022/01/23 09:09:50;;;;;;;0.70;0.70;;;26.40;54.90;;;;;;4901438;28;96083;-59
2022/01/23 09:12:30;;;;;;;0.60;0.60;;;26.40;54.90;;;;;;4910884;28;97458;-59
2022/01/23 09:15:02;;;;;;;1.23;0.70;;;26.40;55.60;;;;;;4907978;28;95813;-59
2022/01/23 09:17:35;;;;;;;1.33;0.60;;;26.40;54.90;;;;;;4905697;28;96010;-59
2022/01/23 09:20:09;;;;;;;0.82;0.82;;;26.40;54.90;;;;;;4902617;28;96308;-59
2022/01/23 09:22:40;;;;;;;1.70;0.88;;;26.40;54.90;;;;;;4904754;28;96002;-58
2022/01/23 09:25:10;;;;;;;1.00;0.70;;;26.40;55.00;;;;;;4905195;28;97823;-58
2022/01/23 09:27:42;;;;;;;0.70;0.70;;;26.40;55.00;;;;;;4908087;28;96012;-59
2022/01/23 09:30:20;;;;;;;0.80;0.75;;;26.40;55.00;;;;;;4910110;28;96231;-60
2022/01/23 09:32:51;;;;;;;0.70;0.70;;;26.30;54.80;;;;;;4909645;28;102444;-60
2022/01/23 09:35:23;;;;;;;0.70;0.70;;;26.40;54.90;;;;;;4907911;28;96783;-60
2022/01/23 09:37:54;;;;;;;1.35;0.88;;;26.30;54.90;;;;;;4924160;28;95807;-59
2022/01/23 09:40:25;;;;;;;0.40;0.40;;;26.30;54.90;;;;;;4918631;28;96072;-59
2022/01/23 09:43:17;;;;;;;1.52;1.00;;;26.30;54.90;;;;;;4920035;28;95307;-59
2022/01/23 09:45:52;;;;;;;0.90;0.88;;;26.20;44.90;;;;;;4931966;28;95788;-58
2022/01/23 09:48:24;;;;;;;0.70;0.70;;;26.30;54.90;;;;;;4914783;28;95793;-59
2022/01/23 09:50:55;;;;;;;0.65;0.65;;;26.30;54.90;;;;;;4910221;28;96074;-59
2022/01/23 09:53:30;;;;;;;0.75;0.60;;;26.30;54.90;;;;;;4911911;28;95577;-59
2022/01/23 09:56:05;;;;;;;1.45;0.70;;;26.20;54.80;;;;;;4906658;28;96029;-60
2022/01/23 09:58:39;;;;;;;2.13;0.90;;;26.20;54.60;;;;;;4903554;28;96157;-58
2022/01/23 10:01:11;;;;;;;0.98;0.80;;;26.20;54.90;;;;;;4908839;28;96651;-60
2022/01/23 10:03:42;;;;;;;2.10;1.00;;;26.30;47.00;;;;;;4910134;28;97612;-59
2022/01/23 10:06:14;;;;;;;1.52;0.82;;;26.20;55.00;;;;;;4907673;28;95669;-59
2022/01/23 10:08:49;;;;;;;0.93;0.85;;;26.20;55.10;;;;;;4907858;28;95370;-58
2022/01/23 10:11:21;;;;;;;1.65;0.90;;;26.20;55.00;;;;;;4942944;28;100730;-59
2022/01/23 10:13:53;;;;;;;1.30;0.90;;;26.20;55.10;;;;;;4904957;28;95748;-60
2022/01/23 10:16:24;;;;;;;0.73;0.73;;;26.20;55.10;;;;;;4903734;28;95950;-59
2022/01/23 10:18:56;;;;;;;2.33;1.00;;;26.20;55.20;;;;;;4909464;28;96126;-60
2022/01/23 10:21:29;;;;;;;1.00;0.90;;;26.20;55.20;;;;;;4913253;28;96946;-59
2022/01/23 10:24:01;;;;;;;2.97;0.88;;;26.10;55.30;;;;;;4910298;28;96298;-59
2022/01/23 10:26:57;;;;;;;2.00;0.70;;;26.10;55.40;;;;;;4909550;28;97226;-59
2022/01/23 10:29:33;;;;;;;1.25;0.70;;;26.10;55.40;;;;;;4909414;28;95811;-60
2022/01/23 10:32:05;;;;;;;1.30;1.08;;;26.10;55.40;;;;;;4906323;28;96700;-60
2022/01/23 10:34:45;;;;;;;1.17;0.90;;;26.10;55.40;;;;;;4908285;28;96338;-60
2022/01/23 10:37:36;;;;;;;1.10;0.90;;;26.10;55.50;;;;;;4918261;28;95908;-59
2022/01/23 10:40:35;;;;;;;11.43;2.38;;;26.10;55.60;;;;;;4943301;28;95837;-62
2022/01/23 10:48:45;;;;;;;11.93;2.58;;;25.60;58.00;;;;;;4915055;28;95729;-61
2022/01/23 10:51:26;;;;;;;6.30;1.73;;;25.50;58.30;;;;;;4915028;28;95670;-61
2022/01/23 10:54:13;;;;;;;;;;;25.40;58.70;;;;;;4915340;28;97158;-61
2022/01/23 10:56:54;;;;;;;9.27;2.25;;;25.20;58.80;;;;;;4905079;28;95960;-62
2022/01/23 10:59:38;;;;;;;5.17;2.07;;;25.10;59.80;;;;;;4915733;28;95509;-62
2022/01/23 11:02:12;;;;;;;7.78;1.40;;;25.00;59.50;;;;;;4903520;28;95751;-62
2022/01/23 11:05:05;;;;;;;3.78;1.75;;;24.80;60.30;;;;;;4912541;28;97896;-62
2022/01/23 11:07:42;;;;;;;3.63;1.33;;;24.60;60.40;;;;;;4904698;28;95817;-63
2022/01/23 11:10:14;;;;;;;5.88;1.83;;;24.60;61.00;;;;;;4906190;28;95971;-63
2022/01/23 11:18:18;;;;;;;5.28;2.08;;;24.20;61.90;;;;;;4904794;28;97805;-63
2022/01/23 11:20:52;;;;;;;;;;;24.00;63.10;;;;;;4903799;28;95577;-63
2022/01/23 11:23:23;;;;;;;4.88;2.13;;;23.80;62.80;;;;;;4907435;28;95793;-63
2022/01/23 11:25:55;;;;;;;;;;;23.70;64.10;;;;;;4902759;28;96469;-63
2022/01/23 11:28:55;;;;;;;7.72;2.05;;;23.60;64.10;;;;;;4906738;28;97850;-63
2022/01/23 11:31:26;;;;;;;4.65;1.73;;;23.50;55.10;;;;;;4903353;28;95530;-63
2022/01/23 11:33:57;;;;;;;;;;;23.40;64.90;;;;;;4906345;28;95816;-63
2022/01/23 11:36:33;;;;;;;5.60;1.77;;;23.30;64.80;;;;;;4904674;28;96979;-63
2022/01/23 11:39:14;;;;;;;6.90;1.73;;;23.20;65.60;;;;;;4910029;28;95975;-63
2022/01/23 11:50:51;;;;;;;3.67;1.48;;;22.90;66.60;;;;;;4903755;28;96288;-63
2022/01/23 11:56:33;;;;;;;4.45;1.30;;;22.70;67.40;;;;;;4903504;28;95654;-62
2022/01/23 11:59:48;;;;;;;4.75;1.20;;;22.70;66.80;;;;;;4944771;28;96331;-63
2022/01/23 12:02:26;;;;;;;5.65;1.48;;;22.60;67.50;;;;;;4915017;28;95881;-64
2022/01/23 12:05:18;;;;;;;3.83;1.83;;;22.50;66.80;;;;;;4914432;28;95542;-63
2022/01/23 12:08:16;;;;;;;2.88;0.95;;;22.40;67.50;;;;;;4908682;28;95885;-63
2022/01/23 12:17:11;;;;;;;18.75;2.45;;;22.40;67.80;;;;;;4907635;28;95411;-63
2022/01/23 12:19:48;;;;;;;42.45;4.72;;;22.50;67.90;;;;;;4922982;28;97684;-64
2022/01/23 12:22:39;;;;;;;9.93;2.90;;;22.50;67.80;;;;;;4921472;28;96023;-64
2022/01/23 12:25:12;;;;;;;9.48;1.58;;;22.50;67.90;;;;;;4924960;28;96871;-63
2022/01/23 12:27:43;;;;;;;8.30;1.73;;;22.20;67.80;;;;;;4915026;28;95932;-63
2022/01/23 12:30:31;;;;;;;14.45;1.80;;;22.20;67.90;;;;;;4896559;28;95728;-64
2022/01/23 12:33:28;;;;;;;11.82;2.35;;;21.90;68.80;;;;;;4919310;28;96101;-63
2022/01/23 12:36:23;;;;;;;13.48;2.85;;;22.10;69.70;;;;;;4926464;28;98794;-63
2022/01/23 12:39:15;;;;;;;4.68;1.27;;;22.40;68.40;;;;;;4918772;28;95775;-63
2022/01/23 12:41:52;;;;;;;5.97;1.60;;;22.30;68.40;;;;;;4921559;28;95597;-63
2022/01/23 12:44:23;;;;;;;6.97;2.00;;;22.20;68.50;;;;;;4907117;28;97207;-63
2022/01/23 12:46:57;;;;;;;;;;;22.40;59.00;;;;;;4904007;28;96340;-63
2022/01/23 12:49:48;;;;;;;9.45;1.92;;;22.40;68.50;;;;;;4917661;28;95818;-63
2022/01/23 12:52:24;;;;;;;4.78;1.33;;;22.50;68.50;;;;;;4923932;28;95776;-63
2022/01/23 12:55:00;;;;;;;4.47;1.40;;;22.50;67.90;;;;;;4911012;28;96092;-63
2022/01/23 12:57:39;;;;;;;3.13;1.48;;;22.40;67.90;;;;;;4896324;28;95955;-63
2022/01/23 13:00:22;;;;;;;5.13;1.52;;;22.40;68.50;;;;;;4906741;28;95251;-63
2022/01/23 13:02:54;;;;;;;6.38;1.67;;;22.30;68.40;;;;;;4912336;28;95727;-64
2022/01/23 13:05:26;;;;;;;5.78;1.27;;;22.20;68.80;;;;;;4919357;28;96494;-63
2022/01/23 13:11:23;;;;;;;2.47;1.48;;;22.30;69.20;;;;;;4923099;28;95981;-63
2022/01/23 13:13:49;;;;;;;5.93;1.63;;;22.40;68.90;;;;;;4918339;28;95811;-63
2022/01/23 13:16:34;;;;;;;5.78;1.33;;;22.30;67.90;;;;;;4914371;28;97529;-61
2022/01/23 13:30:49;;;;;;;12.15;2.75;;;21.40;70.60;;;;;;4893720;28;96305;-62
2022/01/23 13:33:25;;;;;;;;;;;21.30;71.50;;;;;;4919987;28;96577;-63
2022/01/23 13:35:58;;;;;;;2.50;1.13;;;21.30;71.80;;;;;;4919185;28;96031;-63
2022/01/23 13:38:33;;;;;;;4.38;1.17;;;21.20;72.10;;;;;;4905252;28;97062;-63
2022/01/23 13:41:21;;;;;;;11.82;1.50;;;21.20;72.40;;;;;;4914712;28;96264;-62
2022/01/23 13:51:11;;;;;;;2.25;1.00;;;20.80;73.40;;;;;;4935535;28;98032;-63
2022/01/23 13:52:57;;;;;;;8.70;2.10;;;20.80;73.40;;;;;;4913863;28;96249;-63
2022/01/23 14:01:18;;;;;;;4.75;1.63;;;20.90;74.60;;;;;;4891532;28;96685;-62
2022/01/23 14:03:49;;;;;;;5.47;0.98;;;20.90;74.30;;;;;;4911700;28;95601;-64
2022/01/23 14:06:22;;;;;;;6.35;1.77;;;21.00;74.40;;;;;;4926788;28;95686;-62
2022/01/23 14:09:11;;;;;;;3.53;1.45;;;21.00;74.60;;;;;;4923470;28;95376;-62
2022/01/23 14:11:43;;;;;;;4.63;1.77;;;21.10;74.20;;;;;;4916109;28;96788;-62
2022/01/23 14:14:25;;;;;;;3.10;1.25;;;21.10;74.60;;;;;;4926441;28;95792;-63
2022/01/23 14:17:10;;;;;;;4.50;1.63;;;21.10;74.40;;;;;;4916467;28;96071;-60
2022/01/23 14:19:56;;;;;;;3.45;1.25;;;21.00;75.20;;;;;;4922311;28;95536;-62
2022/01/23 14:22:38;;;;;;;4.93;1.52;;;21.00;74.70;;;;;;4950726;28;96954;-62
2022/01/23 14:25:13;;;;;;;4.30;1.38;;;20.90;74.90;;;;;;4918692;28;96433;-61
2022/01/23 14:28:00;;;;;;;6.00;1.42;;;20.90;75.00;;;;;;4924904;28;95743;-60
2022/01/23 14:30:32;;;;;;;6.25;1.92;;;20.80;75.20;;;;;;4921703;28;96930;-62
2022/01/23 14:33:20;;;;;;;4.43;1.35;;;20.90;75.50;;;;;;4926078;28;96606;-61
2022/01/23 14:35:52;;;;;;;7.07;1.58;;;21.10;74.90;;;;;;4926602;28;96268;-61
2022/01/23 14:38:28;;;;;;;11.52;2.83;;;21.30;74.40;;;;;;4920651;28;95685;-59
2022/01/23 14:41:10;;;;;;;6.90;1.63;;;21.30;74.10;;;;;;4918001;28;95993;-59
2022/01/23 14:43:43;;;;;;;3.63;1.40;;;21.30;72.70;;;;;;4928772;28;95592;-60
2022/01/23 14:46:14;;;;;;;5.63;1.52;;;21.20;74.30;;;;;;4911548;28;97097;-60
2022/01/23 14:48:49;;;;;;;4.82;1.67;;;21.20;74.40;;;;;;4926633;28;96096;-60
2022/01/23 14:51:24;;;;;;;4.97;1.55;;;21.20;74.70;;;;;;4929232;28;95732;-61
2022/01/23 14:53:55;;;;;;;4.53;1.40;;;21.20;74.70;;;;;;4927443;28;95976;-61
2022/01/23 14:56:30;;;;;;;3.22;1.30;;;21.30;74.20;;;;;;4907498;28;96100;-62
2022/01/23 14:59:01;;;;;;;4.80;1.35;;;21.20;73.60;;;;;;4915829;28;97714;-63
2022/01/23 15:01:34;;;;;;;;;;;20.80;74.60;;;;;;4911098;28;96431;-64
2022/01/23 15:04:08;;;;;;;6.05;1.48;;;20.80;74.90;;;;;;4950993;28;96109;-65
2022/01/23 15:06:46;;;;;;;5.68;1.30;;;21.00;76.20;;;;;;4914957;28;95750;-65
2022/01/23 15:09:19;;;;;;;6.15;1.48;;;21.60;74.40;;;;;;4915391;28;95951;-66
2022/01/23 15:11:50;;;;;;;8.55;1.50;;;21.80;73.00;;;;;;4941136;28;95742;-64
2022/01/23 15:14:21;;;;;;;6.43;1.77;;;22.10;72.70;;;;;;4918333;28;96414;-64
2022/01/23 15:16:53;;;;;;;6.85;1.75;;;22.40;71.40;;;;;;4916166;28;97065;-64
2022/01/23 15:19:29;;;;;;;6.47;1.70;;;22.50;70.60;;;;;;4926336;28;95501;-64
2022/01/23 15:22:02;;;;;;;3.85;1.48;;;22.60;70.10;;;;;;4924674;28;96109;-64
2022/01/23 15:24:32;;;;;;;9.00;1.35;;;22.60;70.00;;;;;;4922013;28;96572;-65
2022/01/23 15:27:02;;;;;;;3.30;1.40;;;22.60;69.50;;;;;;4928304;28;95888;-64
2022/01/23 15:29:32;;;;;;;7.15;1.30;;;22.70;69.30;;;;;;4923979;28;95422;-63
2022/01/23 15:32:02;;;;;;;3.75;1.30;;;22.70;69.30;;;;;;4918639;28;95906;-64
2022/01/23 15:34:35;;;;;;;5.65;1.42;;;22.70;69.10;;;;;;4922431;28;96111;-64
2022/01/23 15:37:07;;;;;;;5.50;2.00;;;22.60;69.00;;;;;;4927629;28;96551;-64
2022/01/23 15:39:38;;;;;;;7.03;1.50;;;22.70;69.00;;;;;;4927660;28;95538;-63
2022/01/23 15:42:09;;;;;;;3.33;1.40;;;22.70;68.90;;;;;;4930377;28;95739;-64
2022/01/23 15:44:40;;;;;;;8.90;1.88;;;22.60;68.40;;;;;;4926946;28;96592;-64
2022/01/23 15:47:15;;;;;;;4.10;1.40;;;22.50;68.30;;;;;;4916497;28;96634;-64
2022/01/23 15:49:46;;;;;;;4.45;1.38;;;22.40;68.80;;;;;;4924940;28;95335;-63
2022/01/23 15:52:17;;;;;;;3.38;1.70;;;22.50;69.10;;;;;;4924049;28;95608;-65
2022/01/23 15:54:49;;;;;;;7.60;1.63;;;22.40;68.30;;;;;;4927971;28;96525;-63
2022/01/23 15:57:20;;;;;;;3.97;1.08;;;22.30;68.50;;;;;;4910077;28;95965;-63
2022/01/23 15:59:50;;;;;;;3.78;1.40;;;22.30;68.90;;;;;;4921841;28;96098;-64
2022/01/23 16:02:22;;;;;;;;;;;22.40;69.10;;;;;;4925588;28;96625;-65
2022/01/23 16:04:54;;;;;;;5.40;1.77;;;22.40;69.00;;;;;;4928293;28;96992;-65
2022/01/23 16:07:25;;;;;;;3.20;1.17;;;22.30;68.80;;;;;;4928613;28;95425;-65
2022/01/23 16:09:55;;;;;;;5.82;1.45;;;22.20;68.70;;;;;;4930275;28;95953;-65
2022/01/23 16:12:25;;;;;;;4.22;1.20;;;22.20;68.90;;;;;;4931546;28;95478;-63
2022/01/23 16:15:15;;;;;;;3.20;1.42;;;22.10;68.90;;;;;;4919481;28;96178;-63
2022/01/23 16:17:49;;;;;;;3.83;1.40;;;22.00;69.90;;;;;;4924134;28;97621;-64
2022/01/23 16:20:21;;;;;;;5.43;1.42;;;22.10;69.90;;;;;;4928666;28;95514;-64
2022/01/23 16:22:52;;;;;;;2.20;1.13;;;22.20;69.80;;;;;;4923431;28;95751;-65
2022/01/23 16:25:22;;;;;;;2.45;1.50;;;22.20;69.60;;;;;;4951813;28;96444;-64
2022/01/23 16:27:52;;;;;;;5.13;1.37;;;22.20;69.50;;;;;;4924148;28;96286;-65
2022/01/23 16:30:23;;;;;;;7.15;1.70;;;22.20;69.40;;;;;;4924280;28;95776;-65
2022/01/23 16:32:57;;;;;;;5.45;0.93;;;22.10;69.40;;;;;;4924401;28;97220;-64
2022/01/23 16:35:29;;;;;;;;;;;22.00;69.50;;;;;;4918200;28;96438;-65
2022/01/23 16:37:59;;;;;;;2.65;1.10;;;22.00;69.50;;;;;;4928124;28;96500;-65
2022/01/23 16:40:30;;;;;;;5.22;1.52;;;21.90;69.50;;;;;;4924549;28;96655;-64
2022/01/23 16:43:00;;;;;;;4.72;1.13;;;21.90;70.00;;;;;;4920025;28;95711;-64
2022/01/23 16:45:30;;;;;;;4.65;1.20;;;21.80;70.40;;;;;;4922538;28;98305;-63
2022/01/23 16:48:06;;;;;;;5.63;1.77;;;21.90;70.20;;;;;;4927609;28;95794;-64
2022/01/23 16:50:40;;;;;;;4.28;1.25;;;21.80;70.20;;;;;;4925089;28;95968;-64
2022/01/23 16:53:13;;;;;;;2.90;1.20;;;21.80;70.20;;;;;;4928549;28;95480;-64
2022/01/23 16:55:46;;;;;;;3.95;1.20;;;21.80;70.40;;;;;;4917142;28;97561;-63
2022/01/23 16:58:19;;;;;;;6.45;1.73;;;21.80;70.40;;;;;;4904802;28;95799;-63
2022/01/23 17:00:51;;;;;;;6.03;1.30;;;21.80;60.20;;;;;;4923098;28;95274;-63
2022/01/23 17:03:26;;;;;;;2.95;1.00;;;21.80;70.50;;;;;;4929363;28;95927;-63
2022/01/23 17:05:58;;;;;;;1.08;0.80;;;21.80;70.40;;;;;;4918370;28;96106;-65
2022/01/23 17:08:29;;;;;;;4.05;1.25;;;21.80;67.40;;;;;;4960837;28;97866;-63